Time;durP1;ratioP1;P1;durP2;ratioP2;P2;SDS_P1;SDS_P2;PMS_P1;PMS_P2;Temp;Humidity;BMP_temperature;BMP_pressure;BME280_temperature;BME280_humidity;BME280_pressure;Samples;Min_cycle;Max_cycle;Signal;HPM_P1;HPM_P2
2022/12/25 00:01:30;;;;;;;5.32;2.63;;;;;;;6.83;88.89;96515.75;5071549;28;20055;-79
2022/12/25 00:03:58;;;;;;;4.35;2.65;;;;;;;6.78;89.03;96515.81;5071965;28;20132;-78
2022/12/25 00:06:24;;;;;;;5.18;2.72;;;;;;;6.75;89.32;96516.41;5071001;28;20037;-79
2022/12/25 00:08:51;;;;;;;5.10;2.90;;;;;;;6.74;89.32;96514.81;5070973;28;20488;-78
2022/12/25 00:11:19;;;;;;;5.22;3.17;;;;;;;6.74;89.34;96520.22;5070762;28;20051;-79
2022/12/25 00:13:46;;;;;;;4.05;2.67;;;;;;;6.75;89.36;96511.00;5071196;28;20064;-79
2022/12/25 00:16:16;;;;;;;4.60;2.78;;;;;;;6.75;89.38;96521.81;5070670;28;20446;-79
2022/12/25 00:18:42;;;;;;;6.90;2.72;;;;;;;6.79;89.32;96517.44;5070893;28;20491;-79
2022/12/25 00:21:10;;;;;;;4.70;2.80;;;;;;;6.81;89.19;96520.66;5070946;28;20052;-79
2022/12/25 00:23:37;;;;;;;4.22;2.47;;;;;;;6.84;89.09;96520.09;5071077;28;20060;-78
2022/12/25 00:26:04;;;;;;;5.40;2.42;;;;;;;6.84;89.09;96525.50;5070177;28;20044;-79
2022/12/25 00:28:31;;;;;;;3.65;1.98;;;;;;;6.82;88.98;96522.25;5070824;28;20052;-79
2022/12/25 00:30:57;;;;;;;5.15;2.15;;;;;;;6.84;89.23;96532.78;5071164;28;20040;-79
2022/12/25 00:33:25;;;;;;;3.72;2.28;;;;;;;6.86;88.94;96539.53;5070216;28;20044;-78
2022/12/25 00:35:59;;;;;;;4.13;2.25;;;;;;;6.89;88.96;96549.81;5070372;28;20048;-79
2022/12/25 00:38:26;;;;;;;3.45;1.88;;;;;;;6.90;88.66;96551.41;5069605;28;20053;-79
2022/12/25 00:40:52;;;;;;;3.83;2.00;;;;;;;6.91;88.77;96538.69;5070514;28;20132;-78
2022/12/25 00:43:19;;;;;;;3.20;2.00;;;;;;;6.89;88.72;96548.97;5070205;28;20098;-77
2022/12/25 00:45:54;;;;;;;3.50;2.10;;;;;;;6.85;88.89;96543.34;5070223;28;20040;-78
2022/12/25 00:48:20;;;;;;;4.32;2.40;;;;;;;6.89;89.09;96538.97;5070164;28;20063;-78
2022/12/25 00:50:48;;;;;;;3.75;2.15;;;;;;;6.89;89.07;96538.97;5070499;28;20048;-78
2022/12/25 00:53:15;;;;;;;5.13;2.80;;;;;;;6.89;89.00;96528.16;5069820;28;20044;-78
2022/12/25 00:55:41;;;;;;;3.65;2.50;;;;;;;6.88;89.01;96529.22;5070092;28;20040;-78
2022/12/25 00:58:08;;;;;;;5.03;2.40;;;;;;;6.87;89.24;96535.75;5069924;28;20048;-79
2022/12/25 01:00:34;;;;;;;4.88;2.22;;;;;;;6.88;89.03;96526.50;5070148;28;20520;-79
2022/12/25 01:03:01;;;;;;;4.15;2.60;;;;;;;6.85;89.21;96526.31;5070160;28;20044;-79
2022/12/25 01:05:27;;;;;;;4.22;2.45;;;;;;;6.84;89.19;96530.09;5069706;28;20408;-78
2022/12/25 01:07:55;;;;;;;3.22;2.17;;;;;;;6.83;89.11;96532.00;5069839;28;20966;-79
2022/12/25 01:10:21;;;;;;;4.03;2.33;;;;;;;6.85;89.41;96537.13;5069465;28;20151;-79
2022/12/25 01:12:47;;;;;;;4.45;2.30;;;;;;;6.87;89.13;96543.84;5070025;28;20052;-78
2022/12/25 01:15:14;;;;;;;3.50;2.20;;;;;;;6.86;88.98;96533.34;5069474;28;20044;-79
2022/12/25 01:17:41;;;;;;;4.45;1.98;;;;;;;6.89;89.11;96532.72;5069905;28;20056;-78
2022/12/25 01:20:08;;;;;;;3.70;1.85;;;;;;;6.87;89.19;96535.75;5069167;28;20041;-79
2022/12/25 01:22:35;;;;;;;3.92;2.35;;;;;;;6.89;89.08;96538.16;5070008;28;20056;-78
2022/12/25 01:25:04;;;;;;;4.13;1.92;;;;;;;6.85;89.48;96537.94;5069752;28;20412;-79
2022/12/25 01:27:31;;;;;;;2.67;1.80;;;;;;;6.80;89.28;96536.09;5069334;28;20041;-79
2022/12/25 01:29:58;;;;;;;3.08;1.67;;;;;;;6.85;89.74;96535.22;5069951;28;20091;-78
2022/12/25 01:32:24;;;;;;;2.75;1.77;;;;;;;6.86;89.78;96534.13;5069146;28;20045;-79
2022/12/25 01:34:51;;;;;;;3.28;1.50;;;;;;;6.83;89.81;96534.69;5069599;28;20044;-79
2022/12/25 01:37:18;;;;;;;2.03;1.23;;;;;;;6.86;89.70;96534.13;5069312;28;20048;-78
2022/12/25 01:39:45;;;;;;;3.15;1.33;;;;;;;6.88;89.71;96541.97;5069369;28;20045;-79
2022/12/25 01:42:17;;;;;;;3.15;1.52;;;;;;;6.86;89.66;96550.38;5069066;28;20102;-78
2022/12/25 01:45:29;;;;;;;3.03;1.60;;;;;;;6.87;89.53;96546.56;5069648;28;20119;-79
2022/12/25 01:47:56;;;;;;;2.63;1.30;;;;;;;6.88;89.61;96536.53;5028866;28;20045;-79
2022/12/25 01:50:23;;;;;;;3.17;1.48;;;;;;;6.91;89.60;96541.38;5070184;28;20098;-79
2022/12/25 01:52:50;;;;;;;3.85;1.40;;;;;;;6.94;89.52;96546.22;5076244;28;20055;-79
2022/12/25 01:55:17;;;;;;;3.15;1.60;;;;;;;6.97;89.47;96545.63;5076127;28;20055;-78
2022/12/25 01:57:45;;;;;;;2.60;1.48;;;;;;;6.91;89.44;96541.38;5076050;28;20060;-78
2022/12/25 02:00:15;;;;;;;2.75;1.40;;;;;;;6.91;89.47;96535.97;5075854;28;20064;-79
2022/12/25 02:02:43;;;;;;;2.45;1.30;;;;;;;6.96;89.39;96539.44;5076034;28;20123;-79
2022/12/25 02:05:14;;;;;;;3.25;1.20;;;;;;;6.90;88.96;96534.38;5075691;28;20056;-78
2022/12/25 02:07:42;;;;;;;2.60;1.33;;;;;;;6.93;89.50;96541.91;5076128;28;20052;-79
2022/12/25 02:10:12;;;;;;;2.05;1.40;;;;;;;6.96;89.16;96533.22;5069498;28;20052;-79
2022/12/25 02:12:39;;;;;;;3.28;1.50;;;;;;;6.98;89.11;96528.28;5076004;28;20518;-78
2022/12/25 02:15:11;;;;;;;2.25;1.33;;;;;;;7.01;89.17;96530.44;5075612;28;20495;-79
2022/12/25 02:17:42;;;;;;;2.92;1.33;;;;;;;7.04;88.95;96525.22;5076293;28;20048;-79
2022/12/25 02:20:37;;;;;;;2.60;1.30;;;;;;;7.02;88.99;96527.44;5075117;28;20040;-79
2022/12/25 02:23:23;;;;;;;3.13;1.35;;;;;;;7.04;89.08;96529.84;5068834;28;20040;-79
2022/12/25 02:26:07;;;;;;;2.17;1.00;;;;;;;7.01;89.26;96531.22;5075779;28;20045;-78
2022/12/25 02:28:40;;;;;;;2.22;1.20;;;;;;;7.00;89.47;96537.75;5075647;28;20400;-79
2022/12/25 02:31:08;;;;;;;;;;;;;;;7.02;89.37;96538.25;5074924;28;20530;-78
2022/12/25 02:36:32;;;;;;;2.00;1.30;;;;;;;7.07;89.06;96530.06;5075334;28;20047;-78
2022/12/25 02:41:50;;;;;;;4.25;1.63;;;;;;;7.10;89.10;96533.28;5075262;28;20098;-79
2022/12/25 03:06:44;;;;;;;2.97;1.80;;;;;;;7.13;89.31;96527.28;5051039;28;20044;-78
2022/12/25 03:12:02;;;;;;;3.72;2.10;;;;;;;7.11;89.76;96518.66;5052746;28;20091;-79
2022/12/25 03:17:14;;;;;;;3.42;1.88;;;;;;;7.06;89.95;96522.25;5052076;28;20051;-79
2022/12/25 03:27:58;;;;;;;3.90;2.40;;;;;;;7.01;90.27;96516.91;5045282;28;20128;-79
2022/12/25 03:33:32;;;;;;;3.58;2.00;;;;;;;6.99;90.35;96516.38;5049161;28;20183;-78
2022/12/25 03:36:04;;;;;;;4.75;2.42;;;;;;;6.96;90.68;96517.75;5045308;28;20069;-78
2022/12/25 04:36:49;;;;;;;6.40;3.65;;;;;;;7.06;92.88;96468.09;5059191;28;20251;-78
2022/12/25 04:39:16;;;;;;;5.43;3.88;;;;;;;7.07;92.87;96473.19;5058249;28;20064;-78
2022/12/25 04:41:43;;;;;;;5.22;3.42;;;;;;;7.11;92.53;96472.63;5060227;28;20340;-78
2022/12/25 04:44:09;;;;;;;6.15;4.35;;;;;;;7.11;92.37;96472.63;5059603;28;20037;-79
2022/12/25 04:46:36;;;;;;;6.28;4.18;;;;;;;7.12;92.37;96472.34;5060085;28;20044;-78
2022/12/25 04:49:02;;;;;;;6.15;4.07;;;;;;;7.12;92.60;96471.53;5058593;28;20481;-78
2022/12/25 04:51:29;;;;;;;5.60;3.67;;;;;;;7.13;92.44;96476.66;5059232;28;20052;-78
2022/12/25 04:53:56;;;;;;;7.15;4.32;;;;;;;7.12;92.62;96461.50;5057052;28;20041;-78
2022/12/25 04:56:23;;;;;;;5.57;4.20;;;;;;;7.11;92.51;96456.38;5050616;28;20056;-79
2022/12/25 04:58:50;;;;;;;6.30;4.10;;;;;;;7.07;92.28;96459.66;5050797;28;20048;-78
2022/12/25 05:01:16;;;;;;;5.88;4.13;;;;;;;7.08;92.39;96455.06;5050508;28;20041;-79
2022/12/25 05:03:43;;;;;;;7.43;4.03;;;;;;;7.05;92.31;96467.28;5050258;28;20060;-78
2022/12/25 05:06:10;;;;;;;6.25;4.20;;;;;;;7.06;92.60;96468.09;5049838;28;20080;-78
2022/12/25 05:08:36;;;;;;;6.43;4.00;;;;;;;7.09;92.58;96467.50;5050755;28;20060;-79
2022/12/25 05:11:06;;;;;;;7.55;4.25;;;;;;;7.09;92.27;96461.28;5050478;28;20069;-79
2022/12/25 05:13:33;;;;;;;6.30;4.43;;;;;;;7.10;92.62;96457.47;5051022;28;20051;-79
2022/12/25 05:16:00;;;;;;;6.47;4.07;;;;;;;7.06;92.46;96458.06;5051089;28;20048;-77
2022/12/25 05:18:27;;;;;;;7.18;4.47;;;;;;;7.03;92.70;96457.84;5049892;28;20052;-78
2022/12/25 05:20:54;;;;;;;6.38;4.35;;;;;;;6.98;93.08;96461.41;5042258;28;20045;-79
2022/12/25 05:23:21;;;;;;;7.95;5.13;;;;;;;6.91;93.44;96458.28;5049544;28;20048;-79
2022/12/25 05:25:47;;;;;;;5.47;3.97;;;;;;;6.89;93.64;96452.34;5050258;28;20052;-79
2022/12/25 05:28:14;;;;;;;6.50;4.20;;;;;;;6.86;93.97;96458.34;5050219;28;20040;-79
2022/12/25 05:30:42;;;;;;;5.93;4.00;;;;;;;6.83;93.91;96453.50;5050519;28;20045;-79
2022/12/25 05:33:08;;;;;;;7.65;4.22;;;;;;;6.82;94.52;96462.72;5049635;28;20041;-78
2022/12/25 05:35:36;;;;;;;6.72;4.07;;;;;;;6.80;94.76;96470.34;5050078;28;20076;-79
2022/12/25 05:38:03;;;;;;;6.63;4.15;;;;;;;6.81;94.94;96471.94;5050352;28;20040;-78
2022/12/25 05:40:29;;;;;;;6.32;4.10;;;;;;;6.82;95.08;96457.31;5050499;28;20056;-78
2022/12/25 05:42:56;;;;;;;5.57;4.03;;;;;;;6.83;95.18;96452.69;5049999;28;20045;-78
2022/12/25 05:45:22;;;;;;;6.95;4.43;;;;;;;6.82;95.21;96454.59;5049639;28;20061;-79
2022/12/25 05:47:50;;;;;;;7.28;4.40;;;;;;;6.82;95.26;96468.13;5051008;28;20051;-78
2022/12/25 05:50:17;;;;;;;6.20;4.13;;;;;;;6.83;95.33;96464.31;5050410;28;20040;-79
2022/12/25 05:52:43;;;;;;;8.45;5.15;;;;;;;6.84;95.76;96465.97;5050082;28;20053;-78
2022/12/25 05:55:10;;;;;;;7.00;5.03;;;;;;;6.88;95.48;96456.13;5050995;28;20512;-78
2022/12/25 05:57:36;;;;;;;6.97;4.47;;;;;;;6.89;95.60;96452.34;5050878;28;20048;-78
2022/12/25 06:00:03;;;;;;;6.75;4.38;;;;;;;6.89;95.54;96446.94;5052141;28;20052;-79
2022/12/25 06:02:30;;;;;;;7.25;4.18;;;;;;;6.92;95.46;96451.75;5050240;28;20052;-78
2022/12/25 06:04:57;;;;;;;5.45;4.07;;;;;;;6.95;95.53;96450.38;5051472;28;20046;-79
2022/12/25 06:07:24;;;;;;;6.82;4.25;;;;;;;6.95;95.39;96453.88;5051729;28;20048;-79
2022/12/25 06:09:50;;;;;;;6.18;3.95;;;;;;;6.93;95.43;96453.34;5049805;28;20049;-78
2022/12/25 06:12:17;;;;;;;6.38;3.97;;;;;;;6.94;95.39;96460.41;5052167;28;20431;-79
2022/12/25 06:14:43;;;;;;;6.18;4.25;;;;;;;6.92;95.26;96451.75;5051067;28;20049;-79
2022/12/25 06:17:10;;;;;;;7.32;4.22;;;;;;;6.90;95.26;96448.53;5050385;28;20048;-79
2022/12/25 06:19:36;;;;;;;7.00;4.40;;;;;;;6.90;95.46;96453.97;5052075;28;20037;-79
2022/12/25 06:22:04;;;;;;;7.05;4.00;;;;;;;6.91;95.39;96455.56;5054715;28;20041;-79
2022/12/25 06:24:30;;;;;;;6.30;4.18;;;;;;;6.91;95.37;96458.28;5054491;28;20045;-78
2022/12/25 06:26:57;;;;;;;5.65;4.30;;;;;;;6.91;95.60;96458.28;5051744;28;20051;-78
2022/12/25 06:29:23;;;;;;;5.57;4.13;;;;;;;6.95;95.68;96451.19;5052874;28;20386;-78
2022/12/25 06:31:55;;;;;;;5.15;3.45;;;;;;;6.94;95.69;96444.16;5051034;28;20079;-79
2022/12/25 06:34:22;;;;;;;6.35;4.35;;;;;;;6.93;95.62;96447.94;5052491;28;20528;-77
2022/12/25 06:36:48;;;;;;;5.13;3.67;;;;;;;6.91;95.62;96449.34;5055856;28;20044;-79
2022/12/25 06:39:16;;;;;;;4.88;3.72;;;;;;;6.88;95.87;96448.00;5054863;28;20045;-78
2022/12/25 06:41:43;;;;;;;7.28;3.88;;;;;;;6.90;96.00;96453.97;5056275;28;20156;-79
2022/12/25 06:44:09;;;;;;;5.78;3.88;;;;;;;6.88;96.25;96456.13;5055332;28;20033;-79
2022/12/25 06:46:36;;;;;;;6.45;4.22;;;;;;;6.85;96.37;96456.75;5056594;28;20056;-78
2022/12/25 06:49:02;;;;;;;7.50;4.18;;;;;;;6.84;96.78;96455.13;5056856;28;20045;-78
2022/12/25 06:51:30;;;;;;;5.43;4.07;;;;;;;6.87;97.05;96451.81;5053562;28;20045;-79
2022/12/25 06:53:58;;;;;;;6.40;3.75;;;;;;;6.82;97.45;96448.38;5053672;28;20110;-78
2022/12/25 06:56:28;;;;;;;5.35;3.70;;;;;;;6.88;97.43;96447.22;5052845;28;20041;-79
2022/12/25 06:58:57;;;;;;;6.47;4.22;;;;;;;6.75;98.04;96456.88;5044892;28;20052;-78
2022/12/25 07:01:26;;;;;;;5.47;3.85;;;;;;;6.83;98.11;96458.09;5052881;28;20045;-78
2022/12/25 07:03:56;;;;;;;6.80;4.22;;;;;;;6.85;97.76;96462.16;5045194;28;20052;-78
2022/12/25 07:06:23;;;;;;;6.20;3.92;;;;;;;6.90;97.49;96467.50;5052451;28;20040;-79
2022/12/25 07:08:50;;;;;;;7.25;4.50;;;;;;;6.90;97.26;96464.78;5052571;28;20503;-79
2022/12/25 07:11:16;;;;;;;6.47;3.53;;;;;;;6.89;97.36;96462.34;5052597;28;20407;-79
2022/12/25 07:13:44;;;;;;;6.10;3.60;;;;;;;6.93;97.29;96464.19;5052869;28;20471;-79
2022/12/25 07:16:12;;;;;;;5.90;3.70;;;;;;;6.99;97.24;96465.72;5052790;28;20416;-79
2022/12/25 07:18:39;;;;;;;7.18;4.60;;;;;;;7.03;96.68;96464.03;5053417;28;20041;-78
2022/12/25 07:21:07;;;;;;;7.30;4.60;;;;;;;7.09;96.16;96461.28;5052801;28;20091;-79
2022/12/25 07:23:34;;;;;;;8.00;5.07;;;;;;;7.10;96.11;96461.00;5052753;28;20068;-78
2022/12/25 07:26:02;;;;;;;6.00;4.25;;;;;;;7.15;95.57;96455.50;5052819;28;20037;-79
2022/12/25 07:28:29;;;;;;;5.03;3.17;;;;;;;7.17;95.23;96457.91;5052468;28;20045;-80
2022/12/25 07:31:02;;;;;;;4.47;3.10;;;;;;;7.18;95.38;96457.63;5053051;28;20060;-78
2022/12/25 07:33:29;;;;;;;5.55;3.50;;;;;;;7.21;95.30;96448.13;5052306;28;20101;-79
2022/12/25 07:35:56;;;;;;;5.28;3.45;;;;;;;7.26;94.86;96448.03;5052666;28;20048;-78
2022/12/25 07:38:22;;;;;;;5.45;3.55;;;;;;;7.25;94.87;96443.69;5051708;28;20041;-78
2022/12/25 07:40:49;;;;;;;5.20;3.47;;;;;;;7.30;94.47;96446.31;5052577;28;20520;-78
2022/12/25 07:43:15;;;;;;;5.55;3.38;;;;;;;7.28;94.67;96449.34;5052019;28;20381;-79
2022/12/25 07:45:42;;;;;;;5.43;3.22;;;;;;;7.34;94.28;96447.34;5051956;28;20048;-78
2022/12/25 07:48:09;;;;;;;6.05;3.28;;;;;;;7.40;93.75;96446.16;5052661;28;20056;-79
2022/12/25 07:50:36;;;;;;;5.43;3.17;;;;;;;7.47;93.00;96441.19;5052619;28;20049;-78
2022/12/25 07:53:02;;;;;;;4.45;3.05;;;;;;;7.53;93.13;96441.91;5052144;28;20071;-78
2022/12/25 07:55:29;;;;;;;4.65;3.20;;;;;;;7.58;92.73;96442.63;5052061;28;20045;-78
2022/12/25 07:57:55;;;;;;;5.25;2.97;;;;;;;7.64;92.60;96446.06;5052415;28;20041;-79
2022/12/25 08:00:28;;;;;;;7.25;3.78;;;;;;;7.68;92.55;96447.09;5052351;28;20053;-79
2022/12/25 08:02:56;;;;;;;5.70;2.83;;;;;;;7.78;92.36;96446.13;5052794;28;20052;-79
2022/12/25 08:05:24;;;;;;;8.82;3.80;;;;;;;7.82;92.12;96439.78;5052280;28;20059;-79
2022/12/25 08:07:52;;;;;;;10.10;3.63;;;;;;;7.89;91.69;96439.41;5052214;28;20040;-79
2022/12/25 08:10:19;;;;;;;18.52;10.13;;;;;;;7.93;90.94;96448.53;5051782;28;20507;-79
2022/12/25 08:12:45;;;;;;;8.77;4.30;;;;;;;7.95;90.83;96451.75;5052571;28;20056;-78
2022/12/25 08:15:12;;;;;;;6.47;4.00;;;;;;;7.96;90.59;96458.78;5052320;28;20041;-79
2022/12/25 08:17:39;;;;;;;6.30;3.75;;;;;;;8.04;90.52;96444.56;5052296;28;20094;-79
2022/12/25 08:20:07;;;;;;;4.80;3.70;;;;;;;8.06;89.82;96442.34;5052355;28;20044;-79
2022/12/25 08:22:34;;;;;;;4.68;3.28;;;;;;;8.05;89.75;96440.72;5052219;28;20045;-79
2022/12/25 08:25:01;;;;;;;5.93;3.30;;;;;;;8.19;89.89;96445.34;5052255;28;20052;-79
2022/12/25 08:27:28;;;;;;;5.75;3.35;;;;;;;8.24;89.89;96443.34;5051763;28;20040;-79
2022/12/25 08:29:54;;;;;;;5.03;3.50;;;;;;;8.35;89.52;96433.94;5049210;28;20045;-79
2022/12/25 08:32:21;;;;;;;7.72;3.97;;;;;;;8.39;89.40;96431.44;5055949;28;20044;-78
2022/12/25 08:34:48;;;;;;;5.70;3.65;;;;;;;8.44;89.10;96430.53;5056188;28;20045;-79
2022/12/25 08:37:14;;;;;;;7.50;4.25;;;;;;;8.42;88.49;96435.47;5055182;28;20044;-78
2022/12/25 08:39:42;;;;;;;5.55;3.58;;;;;;;8.41;88.57;96434.66;5056277;28;20052;-79
2022/12/25 08:42:08;;;;;;;7.90;4.15;;;;;;;8.41;88.54;96431.94;5056096;28;20045;-78
2022/12/25 08:44:35;;;;;;;7.85;4.07;;;;;;;8.43;88.82;96435.16;5056345;28;20056;-78
2022/12/25 08:47:01;;;;;;;8.27;3.67;;;;;;;8.45;88.66;96429.41;5055193;28;20045;-79
2022/12/25 08:49:28;;;;;;;7.35;4.07;;;;;;;8.48;88.54;96426.09;5076308;28;20041;-79
2022/12/25 08:51:54;;;;;;;5.88;3.60;;;;;;;8.47;88.39;96441.59;5076374;28;20037;-78
2022/12/25 08:54:21;;;;;;;7.03;4.20;;;;;;;8.51;88.04;96442.59;5075192;28;20508;-78
2022/12/25 08:56:49;;;;;;;6.13;3.58;;;;;;;8.38;88.49;96437.16;5075303;28;20057;-79
2022/12/25 08:59:15;;;;;;;6.47;3.90;;;;;;;8.46;88.50;96450.84;5079485;28;20094;-78
2022/12/25 09:01:42;;;;;;;7.97;4.05;;;;;;;8.58;88.36;96448.41;5078627;28;20048;-78
2022/12/25 09:04:08;;;;;;;9.73;4.65;;;;;;;8.66;88.27;96443.38;5078089;28;20032;-79
2022/12/25 09:06:34;;;;;;;6.47;4.28;;;;;;;8.72;88.31;96436.72;5078727;28;20128;-78
2022/12/25 09:09:01;;;;;;;5.38;3.55;;;;;;;8.75;87.72;96436.94;5070117;28;20132;-78
2022/12/25 09:11:27;;;;;;;5.68;3.08;;;;;;;8.80;87.45;96434.09;5076796;28;20044;-81
2022/12/25 09:13:55;;;;;;;4.57;3.35;;;;;;;8.85;87.58;96430.47;5077909;28;20510;-79
2022/12/25 09:16:22;;;;;;;4.93;3.42;;;;;;;8.81;88.07;96429.47;5072413;28;20056;-79
2022/12/25 09:18:49;;;;;;;3.72;2.72;;;;;;;8.88;87.67;96419.03;5070298;28;20040;-79
2022/12/25 09:21:16;;;;;;;4.63;3.20;;;;;;;8.96;87.48;96425.63;5069776;28;20049;-78
2022/12/25 09:23:43;;;;;;;4.50;2.90;;;;;;;8.99;87.11;96436.69;5070111;28;20044;-78
2022/12/25 09:26:11;;;;;;;4.47;2.97;;;;;;;9.08;86.21;96440.31;5069497;28;20044;-79
2022/12/25 09:28:38;;;;;;;3.88;2.35;;;;;;;9.09;85.14;96431.03;5069624;28;20047;-79
2022/12/25 09:31:06;;;;;;;3.83;2.33;;;;;;;9.11;85.98;96417.94;5069121;28;20041;-79
2022/12/25 09:33:33;;;;;;;5.35;3.28;;;;;;;9.16;85.33;96419.75;5051652;28;20094;-79
2022/12/25 09:36:01;;;;;;;4.60;3.00;;;;;;;9.28;85.20;96417.28;5069591;28;20041;-78
2022/12/25 09:38:29;;;;;;;4.45;2.58;;;;;;;9.46;85.20;96412.78;5048770;28;20055;-79
2022/12/25 09:41:01;;;;;;;3.75;2.50;;;;;;;9.70;84.10;96414.38;5057056;28;20045;-78
2022/12/25 09:43:30;;;;;;;4.20;2.20;;;;;;;10.01;81.73;96411.66;5069153;28;20048;-79
2022/12/25 09:45:59;;;;;;;4.68;2.40;;;;;;;10.39;79.67;96412.03;5069603;28;20051;-78
2022/12/25 09:48:29;;;;;;;3.97;2.28;;;;;;;10.88;77.97;96408.13;5069176;28;20049;-79
2022/12/25 09:51:02;;;;;;;3.53;2.30;;;;;;;11.15;73.89;96400.78;5069662;28;20699;-79
2022/12/25 09:53:36;;;;;;;4.07;2.20;;;;;;;11.27;75.14;96394.69;5068964;28;20416;-79
2022/12/25 09:56:10;;;;;;;3.47;2.20;;;;;;;11.35;73.91;96397.41;5068775;28;20052;-79
2022/12/25 09:58:36;;;;;;;4.28;2.47;;;;;;;11.40;74.22;96385.56;5069426;28;20043;-79
2022/12/25 10:01:12;;;;;;;4.93;2.20;;;;;;;11.55;74.13;96393.25;5068991;28;20111;-79
2022/12/25 10:04:03;;;;;;;2.95;2.00;;;;;;;11.85;71.69;96396.91;5069133;28;20043;-79
2022/12/25 10:06:41;;;;;;;4.45;1.88;;;;;;;12.08;69.26;96399.41;5050671;28;20101;-79
2022/12/25 10:09:25;;;;;;;3.40;2.05;;;;;;;12.30;69.41;96412.81;5061383;28;20499;-79
2022/12/25 10:12:06;;;;;;;3.17;2.00;;;;;;;12.20;69.23;96413.97;5065196;28;20060;-78
2022/12/25 10:14:41;;;;;;;2.88;2.05;;;;;;;12.37;69.51;96412.28;5073162;28;20479;-79
2022/12/25 10:17:26;;;;;;;4.18;2.10;;;;;;;12.49;67.97;96415.16;5073054;28;20638;-78
2022/12/25 10:20:02;;;;;;;3.60;2.08;;;;;;;12.50;67.59;96414.00;5073334;28;20118;-79
2022/12/25 10:22:34;;;;;;;2.83;1.85;;;;;;;12.44;68.64;96418.06;5065052;28;20052;-77
2022/12/25 10:25:02;;;;;;;3.55;2.00;;;;;;;12.44;67.54;96423.53;5055521;28;20063;-79
2022/12/25 10:27:33;;;;;;;2.72;2.03;;;;;;;12.63;67.04;96417.63;5055797;28;20496;-79
2022/12/25 10:30:01;;;;;;;3.33;2.17;;;;;;;12.88;66.24;96410.41;5053205;28;20041;-79
2022/12/25 10:32:28;;;;;;;2.42;1.60;;;;;;;12.71;66.61;96411.34;5052640;28;20053;-79
2022/12/25 10:34:56;;;;;;;3.58;1.95;;;;;;;12.54;67.95;96402.09;5053001;28;20559;-79
2022/12/25 10:37:24;;;;;;;3.97;1.90;;;;;;;12.44;68.89;96396.22;5052640;28;20040;-78
2022/12/25 10:39:51;;;;;;;2.67;1.80;;;;;;;12.36;69.58;96405.22;5051753;28;20049;-77
2022/12/25 10:42:34;;;;;;;2.65;1.88;;;;;;;11.88;70.39;96390.00;5052402;28;20045;-78
2022/12/25 10:45:03;;;;;;;3.25;2.03;;;;;;;11.95;70.30;96382.09;5045905;28;20064;-78
2022/12/25 10:47:33;;;;;;;3.20;1.90;;;;;;;11.92;70.03;96374.56;5052146;28;20052;-79
2022/12/25 10:50:08;;;;;;;3.10;1.50;;;;;;;11.86;69.73;96360.31;5052660;28;20049;-78
2022/12/25 10:52:35;;;;;;;6.18;2.40;;;;;;;11.84;70.71;96356.28;5052307;28;20443;-79
2022/12/25 10:55:11;;;;;;;5.22;2.80;;;;;;;11.98;71.17;96362.34;5052210;28;20139;-78
2022/12/25 10:57:45;;;;;;;6.20;2.80;;;;;;;12.18;71.42;96361.63;5052540;28;20044;-78
2022/12/25 11:00:20;;;;;;;4.28;2.63;;;;;;;12.37;69.73;96363.13;5052223;28;20076;-79
2022/12/25 11:02:47;;;;;;;7.53;3.35;;;;;;;12.49;70.33;96355.06;5052173;28;20060;-78
2022/12/25 11:05:25;;;;;;;5.82;2.80;;;;;;;12.39;69.87;96360.91;5051705;28;20059;-77
2022/12/25 11:07:53;;;;;;;4.57;3.00;;;;;;;12.34;69.84;96358.34;5051926;28;20045;-79
2022/12/25 11:10:23;;;;;;;6.40;2.90;;;;;;;12.26;71.33;96346.31;5051848;28;20045;-79
2022/12/25 11:12:51;;;;;;;5.50;2.60;;;;;;;12.22;70.66;96342.69;5052109;28;20041;-79
2022/12/25 11:15:38;;;;;;;4.25;2.85;;;;;;;12.18;70.78;96344.44;5051864;28;20548;-79
2022/12/25 11:18:18;;;;;;;5.10;3.08;;;;;;;12.32;70.21;96338.75;5045104;28;20091;-79
2022/12/25 11:20:50;;;;;;;3.60;2.80;;;;;;;12.23;69.72;96339.59;5051751;28;20049;-79
2022/12/25 11:23:19;;;;;;;4.72;2.83;;;;;;;12.32;70.44;96333.28;5051825;28;20048;-77
2022/12/25 11:25:55;;;;;;;6.30;2.90;;;;;;;12.39;70.09;96334.38;5052001;28;20072;-79
2022/12/25 11:28:22;;;;;;;5.55;3.08;;;;;;;12.37;69.89;96331.19;5051563;28;20052;-78
2022/12/25 11:30:52;;;;;;;5.50;2.83;;;;;;;12.36;69.23;96328.78;5051849;28;20447;-79
2022/12/25 11:33:24;;;;;;;6.10;2.88;;;;;;;12.42;69.37;96332.91;5050296;28;20060;-79
2022/12/25 11:35:55;;;;;;;4.03;2.78;;;;;;;12.40;69.49;96324.25;5051687;28;20045;-79
2022/12/25 11:38:23;;;;;;;5.10;3.10;;;;;;;12.31;70.08;96323.50;5051248;28;20048;-79
2022/12/25 11:40:54;;;;;;;4.35;2.83;;;;;;;12.17;70.75;96315.56;5051522;28;20045;-79
2022/12/25 11:43:23;;;;;;;5.57;3.00;;;;;;;12.14;70.76;96317.00;5051394;28;20045;-79
2022/12/25 11:45:54;;;;;;;6.65;3.20;;;;;;;12.20;70.89;96315.69;5051502;28;20041;-79
2022/12/25 11:48:26;;;;;;;5.35;3.15;;;;;;;12.14;71.18;96314.28;5051470;28;20090;-79
2022/12/25 11:50:57;;;;;;;7.50;2.90;;;;;;;12.09;71.38;96311.72;5051451;28;20052;-78
2022/12/25 11:53:29;;;;;;;5.82;2.92;;;;;;;12.08;72.04;96307.41;5051611;28;20049;-78
2022/12/25 11:56:01;;;;;;;4.43;2.80;;;;;;;12.02;71.93;96304.06;5051281;28;20452;-79
2022/12/25 11:58:32;;;;;;;5.75;3.10;;;;;;;12.01;72.36;96307.13;5051233;28;20049;-78
2022/12/25 12:01:02;;;;;;;4.72;3.05;;;;;;;11.91;72.30;96297.38;5051403;28;20439;-77
2022/12/25 12:03:33;;;;;;;5.90;3.35;;;;;;;11.80;72.77;96296.09;5051270;28;20037;-79
2022/12/25 12:06:04;;;;;;;4.32;3.20;;;;;;;11.70;73.47;96294.53;5051218;28;20052;-79
2022/12/25 12:08:32;;;;;;;6.40;3.47;;;;;;;11.69;73.90;96292.94;5058084;28;20067;-79
2022/12/25 12:11:18;;;;;;;5.05;3.45;;;;;;;11.66;74.08;96284.59;5067222;28;20044;-79
2022/12/25 12:14:02;;;;;;;4.45;3.13;;;;;;;11.57;74.49;96284.63;5070529;28;20484;-78
2022/12/25 12:16:29;;;;;;;6.68;3.47;;;;;;;11.56;74.66;96283.03;5053727;28;20045;-78
2022/12/25 12:18:56;;;;;;;5.47;3.30;;;;;;;11.41;75.10;96278.09;5050947;28;20048;-77
2022/12/25 12:21:27;;;;;;;5.38;3.40;;;;;;;11.39;75.11;96269.44;5050491;28;20049;-77
2022/12/25 12:23:57;;;;;;;5.07;3.30;;;;;;;11.34;75.90;96264.97;5050902;28;20504;-78
2022/12/25 12:26:26;;;;;;;5.78;3.72;;;;;;;11.31;76.23;96262.06;5050310;28;20063;-78
2022/12/25 12:28:55;;;;;;;6.60;3.53;;;;;;;11.25;76.45;96253.28;5050901;28;20049;-77
2022/12/25 12:31:22;;;;;;;6.07;3.63;;;;;;;11.23;76.91;96261.78;5050767;28;20515;-77
2022/12/25 12:33:52;;;;;;;5.13;3.42;;;;;;;11.22;77.05;96256.63;5050122;28;20049;-78
2022/12/25 12:36:21;;;;;;;22.83;4.22;;;;;;;11.06;78.15;96248.16;5050401;28;20052;-78
2022/12/25 12:38:50;;;;;;;7.50;3.35;;;;;;;11.05;77.93;96243.84;5050500;28;20580;-79
2022/12/25 12:41:17;;;;;;;5.30;3.20;;;;;;;11.05;77.95;96234.88;5050869;28;20055;-77
2022/12/25 12:43:47;;;;;;;6.03;3.17;;;;;;;11.08;78.08;96236.97;5050446;28;20060;-77
2022/12/25 12:46:20;;;;;;;6.00;4.18;;;;;;;11.10;78.24;96237.44;5050521;28;20044;-79
2022/12/25 12:48:49;;;;;;;5.75;3.65;;;;;;;11.06;78.33;96237.28;5051154;28;20041;-77
2022/12/25 12:51:28;;;;;;;5.97;3.92;;;;;;;11.03;78.52;96232.50;5050517;28;20045;-77
2022/12/25 12:54:17;;;;;;;5.68;3.50;;;;;;;11.04;78.10;96236.81;5043359;28;20051;-79
2022/12/25 12:56:55;;;;;;;7.95;3.35;;;;;;;11.01;78.31;96232.00;5050035;28;20128;-77
2022/12/25 12:59:22;;;;;;;6.03;3.50;;;;;;;10.98;78.72;96228.00;5050598;28;20201;-77
2022/12/25 13:01:58;;;;;;;5.75;3.50;;;;;;;10.91;79.03;96224.97;5050161;28;20103;-77
2022/12/25 13:04:36;;;;;;;6.90;4.13;;;;;;;10.85;79.54;96230.91;5050052;28;20044;-78
2022/12/25 13:07:11;;;;;;;4.63;3.30;;;;;;;10.84;79.63;96221.94;5049975;28;20052;-79
2022/12/25 13:09:54;;;;;;;5.60;3.92;;;;;;;10.76;80.46;96219.25;5049625;28;20061;-79
2022/12/25 13:12:22;;;;;;;6.63;3.78;;;;;;;10.73;80.75;96219.88;5049541;28;20091;-78
2022/12/25 13:14:49;;;;;;;6.35;4.13;;;;;;;10.70;80.86;96219.41;5049972;28;20041;-78
2022/12/25 13:17:20;;;;;;;6.13;3.60;;;;;;;10.67;81.22;96222.75;5049752;28;20399;-77
2022/12/25 13:19:55;;;;;;;5.35;3.50;;;;;;;10.66;81.00;96223.88;5049657;28;20052;-77
2022/12/25 13:22:24;;;;;;;7.47;3.58;;;;;;;10.62;80.58;96228.38;5049490;28;20432;-77
2022/12/25 13:24:59;;;;;;;9.73;3.58;;;;;;;10.54;80.77;96229.16;5049635;28;20047;-77
2022/12/25 13:27:28;;;;;;;4.80;3.30;;;;;;;10.47;80.84;96234.28;5049658;28;20070;-78
2022/12/25 13:29:54;;;;;;;6.60;4.00;;;;;;;10.44;81.66;96229.50;5049998;28;20507;-77
2022/12/25 13:32:24;;;;;;;6.15;3.60;;;;;;;10.35;81.98;96228.69;5049227;28;20049;-77